Time;durP1;ratioP1;P1;durP2;ratioP2;P2;SDS_P1;SDS_P2;PMS_P1;PMS_P2;Temp;Humidity;BMP_temperature;BMP_pressure;BME280_temperature;BME280_humidity;BME280_pressure;Samples;Min_cycle;Max_cycle;Signal;HPM_P1;HPM_P2
2023/04/15 00:01:10;;;;;;;;;;;;;;;4.82;100.00;97640.75;4470383;32;19992;-65
2023/04/15 00:03:38;;;;;;;;;;;;;;;4.86;100.00;97634.34;4470498;32;19984;-65
2023/04/15 00:06:06;;;;;;;;;;;;;;;4.80;100.00;97633.91;4470456;32;20036;-65
2023/04/15 00:08:33;;;;;;;;;;;;;;;4.77;100.00;97631.56;4470659;32;20047;-66
2023/04/15 00:11:04;;;;;;;;;;;;;;;4.76;100.00;97631.69;4470461;32;20006;-65
2023/04/15 00:13:32;;;;;;;;;;;;;;;4.73;100.00;97632.78;4470169;32;20026;-65
2023/04/15 00:16:00;;;;;;;;;;;;;;;4.68;100.00;97632.34;4470402;32;19988;-65
2023/04/15 00:18:28;;;;;;;;;;;;;;;4.67;100.00;97648.03;4470522;32;19984;-65
2023/04/15 00:20:56;;;;;;;;;;;;;;;4.65;100.00;97634.34;4470371;32;19977;-65
2023/04/15 00:23:23;;;;;;;;;;;;;;;4.70;100.00;97638.22;4470462;32;19980;-65
2023/04/15 00:25:51;;;;;;;;;;;;;;;4.79;100.00;97628.84;4470437;32;20341;-65
2023/04/15 00:28:20;;;;;;;;;;;;;;;4.67;100.00;97638.47;4470481;32;19993;-65
2023/04/15 00:30:47;;;;;;;;;;;;;;;4.75;100.00;97640.44;4470473;32;19983;-65
2023/04/15 00:33:18;;;;;;;;;;;;;;;4.74;100.00;97639.63;4470719;32;19972;-65
2023/04/15 00:35:46;;;;;;;;;;;;;;;4.87;100.00;97643.78;4470265;32;19992;-65
2023/04/15 00:38:13;;;;;;;;;;;;;;;4.79;100.00;97629.66;4470484;32;19998;-65
2023/04/15 00:40:41;;;;;;;;;;;;;;;4.77;100.00;97634.16;4470250;32;20344;-65
2023/04/15 00:43:09;;;;;;;;;;;;;;;4.75;100.00;97640.44;4468877;32;20047;-65
2023/04/15 00:45:36;;;;;;;;;;;;;;;4.82;100.00;97630.37;4469154;32;19998;-65
2023/04/15 00:48:03;;;;;;;;;;;;;;;4.84;100.00;97631.06;4470329;32;19994;-65
2023/04/15 00:50:32;;;;;;;;;;;;;;;4.97;100.00;97639.44;4470081;32;19976;-65
2023/04/15 00:52:59;;;;;;;;;;;;;;;4.84;100.00;97636.25;4470161;32;19995;-65
2023/04/15 00:55:26;;;;;;;;;;;;;;;4.89;100.00;97632.31;4470281;32;19977;-65
2023/04/15 00:57:54;;;;;;;;;;;;;;;5.00;100.00;97631.41;4469302;32;19999;-65
2023/04/15 01:00:21;;;;;;;;;;;;;;;5.05;100.00;97631.81;4468898;32;20452;-65
2023/04/15 01:02:49;;;;;;;;;;;;;;;5.17;100.00;97632.56;4470165;32;19987;-66
2023/04/15 01:05:18;;;;;;;;;;;;;;;5.28;100.00;97636.84;4470005;32;20363;-65
2023/04/15 01:07:46;;;;;;;;;;;;;;;5.24;100.00;97635.44;4470301;32;19995;-65
2023/04/15 01:10:14;;;;;;;;;;;;;;;5.03;100.00;97623.34;4470294;32;19976;-65
2023/04/15 01:12:42;;;;;;;;;;;;;;;5.08;100.00;97622.97;4469756;32;19980;-65
2023/04/15 01:15:09;;;;;;;;;;;;;;;5.18;100.00;97621.22;4470128;32;20000;-65
2023/04/15 01:17:38;;;;;;;;;;;;;;;5.30;100.00;97629.75;4470117;32;20017;-65
2023/04/15 01:20:08;;;;;;;;;;;;;;;5.32;100.00;97623.44;4470255;32;19980;-65
2023/04/15 01:22:37;;;;;;;;;;;;;;;5.33;100.00;97625.09;4470310;32;20376;-65
2023/04/15 01:25:11;;;;;;;;;;;;;;;5.41;100.00;97631.41;4470166;32;19968;-65
2023/04/15 01:27:39;;;;;;;;;;;;;;;5.48;100.00;97628.16;4470309;32;20031;-65
2023/04/15 01:30:07;;;;;;;;;;;;;;;5.50;100.00;97631.44;4468766;32;19976;-65
2023/04/15 01:32:35;;;;;;;;;;;;;;;5.57;100.00;97633.50;4469970;32;19984;-65
2023/04/15 01:35:02;;;;;;;;;;;;;;;5.60;100.00;97633.22;4470048;32;19976;-65
2023/04/15 01:37:29;;;;;;;;;;;;;;;5.53;100.00;97635.53;4470195;32;19988;-65
2023/04/15 01:39:57;;;;;;;;;;;;;;;5.66;100.00;97637.87;4468702;32;19991;-65
2023/04/15 01:42:24;;;;;;;;;;;;;;;5.65;100.00;97646.66;4469619;32;19991;-65
2023/04/15 01:44:52;;;;;;;;;;;;;;;5.50;100.00;97631.44;4469909;32;19996;-65
2023/04/15 01:47:19;;;;;;;;;;;;;;;5.59;100.00;97653.19;4469822;32;20027;-65
2023/04/15 01:49:47;;;;;;;;;;;;;;;5.66;100.00;97645.69;4469929;32;20115;-66
2023/04/15 01:52:14;;;;;;;;;;;;;;;5.67;100.00;97644.72;4470037;32;20394;-66
2023/04/15 01:54:41;;;;;;;;;;;;;;;5.59;100.00;97639.41;4469837;32;20422;-65
2023/04/15 01:57:11;;;;;;;;;;;;;;;5.59;100.00;97645.41;4470035;32;20015;-65
2023/04/15 01:59:42;;;;;;;;;;;;;;;5.65;100.00;97644.88;4469906;32;20337;-65
2023/04/15 02:02:10;;;;;;;;;;;;;;;5.69;100.00;97645.41;4469429;32;19988;-65
2023/04/15 02:04:37;;;;;;;;;;;;;;;5.67;100.00;97644.72;4469739;32;20353;-65
2023/04/15 02:07:06;;;;;;;;;;;;;;;5.69;100.00;97648.84;4469663;32;19992;-65
2023/04/15 02:09:34;;;;;;;;;;;;;;;5.65;100.00;97644.88;4469809;32;19980;-65
2023/04/15 02:12:02;;;;;;;;;;;;;;;5.72;100.00;97650.34;4469299;32;19986;-65
2023/04/15 02:14:29;;;;;;;;;;;;;;;5.77;100.00;97642.97;4469877;32;20040;-65
2023/04/15 02:16:57;;;;;;;;;;;;;;;5.64;100.00;97647.59;4469652;32;19979;-65
2023/04/15 02:19:24;;;;;;;;;;;;;;;5.75;100.00;97636.25;4469601;32;20480;-65
2023/04/15 02:21:51;;;;;;;;;;;;;;;5.80;100.00;97644.50;4469588;32;19972;-65
2023/04/15 02:24:19;;;;;;;;;;;;;;;5.81;100.00;97646.97;4469514;32;20335;-65
2023/04/15 02:26:46;;;;;;;;;;;;;;;5.79;100.00;97654.06;4469482;32;20059;-65
2023/04/15 02:29:14;;;;;;;;;;;;;;;5.68;100.00;97654.19;4469409;32;19980;-65
2023/04/15 02:31:42;;;;;;;;;;;;;;;5.68;100.00;97649.78;4468015;32;19999;-65
2023/04/15 02:34:10;;;;;;;;;;;;;;;5.55;100.00;97648.41;4469316;32;20425;-65
2023/04/15 02:36:39;;;;;;;;;;;;;;;5.53;100.00;97647.69;4469243;32;19988;-65
2023/04/15 02:39:06;;;;;;;;;;;;;;;5.62;100.00;97644.31;4469353;32;20553;-65
2023/04/15 02:41:34;;;;;;;;;;;;;;;5.57;100.00;97646.47;4469637;32;19990;-65
2023/04/15 02:44:02;;;;;;;;;;;;;;;5.56;100.00;97645.66;4469330;32;19976;-65
2023/04/15 02:46:30;;;;;;;;;;;;;;;5.63;100.00;97646.78;4469561;32;19988;-65
2023/04/15 02:48:58;;;;;;;;;;;;;;;5.59;100.00;97645.41;4469300;32;19976;-65
2023/04/15 02:51:30;;;;;;;;;;;;;;;5.63;100.00;97638.16;4469478;32;20002;-65
2023/04/15 02:53:57;;;;;;;;;;;;;;;5.68;100.00;97636.81;4469255;32;19998;-65
2023/04/15 02:56:26;;;;;;;;;;;;;;;5.67;100.00;97629.97;4469509;32;20002;-65
2023/04/15 02:58:55;;;;;;;;;;;;;;;5.69;100.00;97628.06;4469247;32;20040;-65
2023/04/15 03:01:22;;;;;;;;;;;;;;;5.73;100.00;97630.37;4469289;32;19980;-65
2023/04/15 03:03:50;;;;;;;;;;;;;;;5.74;100.00;97637.22;4468911;32;19995;-66
2023/04/15 03:06:17;;;;;;;;;;;;;;;5.82;100.00;97637.38;4467633;32;19996;-65
2023/04/15 03:08:45;;;;;;;;;;;;;;;5.85;100.00;97634.50;4468963;32;19980;-65
2023/04/15 03:11:13;;;;;;;;;;;;;;;5.86;100.00;97633.56;4469152;32;19977;-65
2023/04/15 03:13:42;;;;;;;;;;;;;;;5.83;100.00;97634.62;4468462;32;19986;-65
2023/04/15 03:16:10;;;;;;;;;;;;;;;5.82;100.00;97637.38;4468832;32;20036;-65
2023/04/15 03:18:37;;;;;;;;;;;;;;;5.85;100.00;97630.13;4468989;32;20381;-65
2023/04/15 03:21:06;;;;;;;;;;;;;;;5.84;100.00;97623.31;4470471;32;19976;-65
2023/04/15 03:23:34;;;;;;;;;;;;;;;5.84;100.00;97633.69;4470960;32;19984;-65
2023/04/15 03:26:02;;;;;;;;;;;;;;;5.90;100.00;97631.50;4470995;32;19985;-65
2023/04/15 03:28:29;;;;;;;;;;;;;;;5.89;100.00;97629.84;4471040;32;19991;-65
2023/04/15 03:30:57;;;;;;;;;;;;;;;5.83;100.00;97634.62;4471027;32;19994;-65
2023/04/15 03:33:24;;;;;;;;;;;;;;;5.80;100.00;97634.09;4469448;32;19980;-65
2023/04/15 03:35:52;;;;;;;;;;;;;;;5.77;100.00;97629.97;4471165;32;19987;-65
2023/04/15 03:38:19;;;;;;;;;;;;;;;5.85;100.00;97637.91;4470725;32;20063;-65
2023/04/15 03:40:46;;;;;;;;;;;;;;;5.76;100.00;97627.53;4470833;32;19972;-65
2023/04/15 03:43:14;;;;;;;;;;;;;;;5.67;100.00;97634.34;4470317;32;19981;-65
2023/04/15 03:45:41;;;;;;;;;;;;;;;5.74;100.00;97627.66;4469544;32;20039;-65
2023/04/15 03:48:09;;;;;;;;;;;;;;;5.78;100.00;97631.59;4470713;32;20479;-66
2023/04/15 03:50:44;;;;;;;;;;;;;;;5.82;100.00;97625.19;4470754;32;20028;-65
2023/04/15 03:53:12;;;;;;;;;;;;;;;5.87;100.00;97628.22;4470529;32;20449;-65
2023/04/15 03:55:39;;;;;;;;;;;;;;;5.93;100.00;97631.22;4470907;32;20365;-65
2023/04/15 03:58:07;;;;;;;;;;;;;;;5.96;100.00;97629.16;4470596;32;20353;-65
2023/04/15 04:00:34;;;;;;;;;;;;;;;5.95;100.00;97631.91;4470689;32;20048;-65
2023/04/15 04:03:01;;;;;;;;;;;;;;;5.96;100.00;97630.94;4470701;32;19985;-65
2023/04/15 04:05:29;;;;;;;;;;;;;;;5.98;100.00;97634.25;4470497;32;20402;-65
2023/04/15 04:07:56;;;;;;;;;;;;;;;5.78;100.00;97634.22;4470437;32;19975;-65
2023/04/15 04:10:25;;;;;;;;;;;;;;;5.82;100.00;97630.37;4469318;32;19988;-65
2023/04/15 04:12:52;;;;;;;;;;;;;;;5.90;100.00;97631.50;4470156;32;20044;-65
2023/04/15 04:15:19;;;;;;;;;;;;;;;5.90;100.00;97626.31;4470667;32;19998;-65
2023/04/15 04:17:47;;;;;;;;;;;;;;;5.93;100.00;97631.22;4470390;32;20412;-65
2023/04/15 04:20:16;;;;;;;;;;;;;;;5.79;100.00;97635.84;4470477;32;20008;-65
2023/04/15 04:22:43;;;;;;;;;;;;;;;5.76;100.00;97624.94;4470331;32;19976;-65
2023/04/15 04:25:10;;;;;;;;;;;;;;;5.78;100.00;97634.22;4470348;32;20000;-65
2023/04/15 04:27:38;;;;;;;;;;;;;;;6.00;100.00;97632.38;4470347;32;19972;-65
2023/04/15 04:30:06;;;;;;;;;;;;;;;6.08;100.00;97634.28;4470503;32;20077;-65
2023/04/15 04:32:34;;;;;;;;;;;;;;;6.06;100.00;97629.22;4469320;32;20460;-65
2023/04/15 04:35:02;;;;;;;;;;;;;;;6.17;100.00;97636.88;4470094;32;19988;-65
2023/04/15 04:37:30;;;;;;;;;;;;;;;6.09;100.00;97636.75;4470278;32;20033;-65
2023/04/15 04:39:57;;;;;;;;;;;;;;;6.17;100.00;97642.06;4470620;32;19975;-65
2023/04/15 04:42:24;;;;;;;;;;;;;;;6.19;100.00;97645.37;4470228;32;20025;-65
2023/04/15 04:44:53;;;;;;;;;;;;;;;6.27;100.00;97634.28;4470348;32;19998;-65
2023/04/15 04:47:20;;;;;;;;;;;;;;;6.34;100.00;97631.94;4470350;32;19996;-65
2023/04/15 04:49:49;;;;;;;;;;;;;;;6.41;100.00;97638.22;4470582;32;20050;-65
2023/04/15 04:52:16;;;;;;;;;;;;;;;6.42;100.00;97636.44;4470314;32;19988;-66
2023/04/15 04:54:44;;;;;;;;;;;;;;;6.47;100.00;97635.06;4470120;32;20035;-65
2023/04/15 04:57:12;;;;;;;;;;;;;;;6.57;100.00;97633.28;4470237;32;19980;-65
2023/04/15 04:59:39;;;;;;;;;;;;;;;6.64;100.00;97636.13;4470061;32;19987;-65
2023/04/15 05:02:07;;;;;;;;;;;;;;;6.64;100.00;97641.34;4470394;32;19984;-65
2023/04/15 05:04:35;;;;;;;;;;;;;;;6.53;100.00;97644.91;4470007;32;19984;-65
2023/04/15 05:07:02;;;;;;;;;;;;;;;6.75;100.00;97642.94;4470126;32;20480;-65
2023/04/15 05:09:31;;;;;;;;;;;;;;;6.66;100.00;97649.84;4470397;32;19996;-65
2023/04/15 05:11:58;;;;;;;;;;;;;;;6.62;100.00;97642.47;4470037;32;19979;-65
2023/04/15 05:14:26;;;;;;;;;;;;;;;6.74;100.00;97647.34;4470117;32;20085;-65
2023/04/15 05:16:54;;;;;;;;;;;;;;;6.61;100.00;97646.00;4470103;32;20334;-65
2023/04/15 05:19:21;;;;;;;;;;;;;;;6.74;100.00;97647.34;4469940;32;20333;-65
2023/04/15 05:21:48;;;;;;;;;;;;;;;6.73;100.00;97652.69;4470071;32;20028;-65
2023/04/15 05:24:17;;;;;;;;;;;;;;;6.89;100.00;97645.13;4469702;32;20420;-65
2023/04/15 05:26:44;;;;;;;;;;;;;;;7.07;100.00;97649.56;4469855;32;20464;-65
2023/04/15 05:29:11;;;;;;;;;;;;;;;7.09;100.00;97651.06;4469862;32;20489;-66
2023/04/15 05:31:38;;;;;;;;;;;;;;;7.09;100.00;97655.47;4469982;32;20346;-65
2023/04/15 05:34:06;;;;;;;;;;;;;;;7.04;100.00;97652.47;4469985;32;19984;-65
2023/04/15 05:36:33;;;;;;;;;;;;;;;6.95;100.00;97666.34;4469936;32;19980;-65
2023/04/15 05:39:01;;;;;;;;;;;;;;;6.93;100.00;97659.50;4469772;32;20443;-65
2023/04/15 05:41:29;;;;;;;;;;;;;;;7.09;100.00;97660.69;4470094;32;20450;-65
2023/04/15 05:43:56;;;;;;;;;;;;;;;7.23;100.00;97668.03;4469246;32;19980;-66
2023/04/15 05:46:24;;;;;;;;;;;;;;;7.37;100.00;97673.72;4469802;32;19972;-65
2023/04/15 05:48:51;;;;;;;;;;;;;;;7.66;100.00;97673.59;4470061;32;19995;-66
2023/04/15 05:51:20;;;;;;;;;;;;;;;7.90;100.00;97677.44;4469824;32;19972;-65
2023/04/15 05:53:48;;;;;;;;;;;;;;;8.23;100.00;97677.75;4468743;32;20023;-66
2023/04/15 05:56:15;;;;;;;;;;;;;;;8.25;100.00;97674.03;4469634;32;19988;-66
2023/04/15 05:58:42;;;;;;;;;;;;;;;8.34;100.00;97680.97;4469821;32;19968;-66
2023/04/15 06:01:10;;;;;;;;;;;;;;;8.40;100.00;97683.94;4470044;32;20015;-66
2023/04/15 06:03:38;;;;;;;;;;;;;;;9.03;100.00;97694.22;4469756;32;19999;-66
2023/04/15 06:06:06;;;;;;;;;;;;;;;9.66;100.00;97686.19;4469599;32;20027;-66
2023/04/15 06:08:33;;;;;;;;;;;;;;;9.92;100.00;97694.78;4469754;32;19984;-66
2023/04/15 06:11:01;;;;;;;;;;;;;;;9.89;100.00;97702.16;4469340;32;20027;-66
2023/04/15 06:13:28;;;;;;;;;;;;;;;9.76;100.00;97695.56;4469463;32;20363;-66
2023/04/15 06:15:55;;;;;;;;;;;;;;;9.65;100.00;97695.03;4469380;32;19980;-66
2023/04/15 06:18:23;;;;;;;;;;;;;;;9.53;100.00;97700.53;4469755;32;19992;-66
2023/04/15 06:20:50;;;;;;;;;;;;;;;9.13;100.00;97698.53;4469557;32;20019;-66
2023/04/15 06:23:17;;;;;;;;;;;;;;;9.19;100.00;97698.75;4469578;32;20029;-66
2023/04/15 06:25:45;;;;;;;;;;;;;;;9.53;100.00;97703.12;4469448;32;20039;-66
2023/04/15 06:28:12;;;;;;;;;;;;;;;9.60;100.00;97700.75;4469575;32;20467;-66
2023/04/15 06:30:40;;;;;;;;;;;;;;;9.74;100.00;97707.16;4469502;32;20040;-66
2023/04/15 06:33:07;;;;;;;;;;;;;;;9.63;100.00;97705.66;4469613;32;19984;-66
2023/04/15 06:35:34;;;;;;;;;;;;;;;10.03;100.00;97714.59;4469183;32;19992;-66
2023/04/15 06:38:01;;;;;;;;;;;;;;;9.96;100.00;97716.19;4469442;32;19990;-66
2023/04/15 06:40:29;;;;;;;;;;;;;;;9.91;100.00;97714.06;4469598;32;20066;-66
2023/04/15 06:42:56;;;;;;;;;;;;;;;10.04;100.00;97712.81;4469184;32;20048;-66
2023/04/15 06:45:23;;;;;;;;;;;;;;;10.33;100.00;97716.81;4467960;32;19995;-66
2023/04/15 06:47:51;;;;;;;;;;;;;;;10.45;100.00;97711.09;4469176;32;19972;-66
2023/04/15 06:50:18;;;;;;;;;;;;;;;10.34;100.00;97716.66;4469071;32;19995;-66
2023/04/15 06:52:45;;;;;;;;;;;;;;;10.12;100.00;97721.47;4469282;32;19985;-66
2023/04/15 06:55:13;;;;;;;;;;;;;;;10.26;100.00;97721.84;4469814;32;20035;-66
2023/04/15 06:57:41;;;;;;;;;;;;;;;10.46;100.00;97710.12;4471100;32;20040;-66
2023/04/15 07:00:10;;;;;;;;;;;;;;;10.92;100.00;97714.06;4470911;32;20003;-66
2023/04/15 07:02:38;;;;;;;;;;;;;;;11.10;100.00;97714.69;4471240;32;20011;-66
2023/04/15 07:05:06;;;;;;;;;;;;;;;11.54;100.00;97710.81;4470886;32;20411;-66
2023/04/15 07:07:33;;;;;;;;;;;;;;;11.58;100.00;97717.34;4470903;32;20003;-66
2023/04/15 07:10:01;;;;;;;;;;;;;;;11.54;100.00;97722.09;4471188;32;20007;-66
2023/04/15 07:12:28;;;;;;;;;;;;;;;11.43;100.00;97719.03;4470553;32;19999;-66
2023/04/15 07:14:55;;;;;;;;;;;;;;;11.43;100.00;97724.28;4470955;32;19989;-66
2023/04/15 07:17:23;;;;;;;;;;;;;;;11.23;100.00;97723.84;4470914;32;20289;-66
2023/04/15 07:19:50;;;;;;;;;;;;;;;11.35;100.00;97728.56;4471211;32;20005;-66
2023/04/15 07:22:18;;;;;;;;;;;;;;;11.71;100.00;97722.06;4470937;32;19988;-66
2023/04/15 07:24:45;;;;;;;;;;;;;;;12.07;100.00;97726.84;4470802;32;20003;-66
2023/04/15 07:27:12;;;;;;;;;;;;;;;12.04;100.00;97728.00;4470863;32;20285;-66
2023/04/15 07:29:40;;;;;;;;;;;;;;;12.06;100.00;97727.84;4470980;32;20371;-66
2023/04/15 07:32:09;;;;;;;;;;;;;;;12.03;100.00;97731.59;4469387;32;20000;-66
2023/04/15 07:34:36;;;;;;;;;;;;;;;12.03;100.00;97736.06;4470945;32;20000;-66
2023/04/15 07:37:04;;;;;;;;;;;;;;;12.10;100.00;97731.75;4470523;32;19984;-66
2023/04/15 07:39:31;;;;;;;;;;;;;;;12.10;100.00;97734.38;4470956;32;19996;-66
2023/04/15 07:41:58;;;;;;;;;;;;;;;12.39;100.00;97727.66;4471015;32;19976;-66
2023/04/15 07:44:26;;;;;;;;;;;;;;;12.40;100.00;97735.34;4469634;32;19968;-66
2023/04/15 07:46:53;;;;;;;;;;;;;;;12.05;100.00;97740.16;4470869;32;20036;-66
2023/04/15 07:49:20;;;;;;;;;;;;;;;12.22;100.00;97735.63;4470582;32;19980;-66
2023/04/15 07:51:48;;;;;;;;;;;;;;;11.99;100.00;97732.13;4470665;32;20011;-66
2023/04/15 07:54:15;;;;;;;;;;;;;;;11.89;100.00;97735.75;4470692;32;19979;-66
2023/04/15 07:56:42;;;;;;;;;;;;;;;11.71;100.00;97737.78;4470698;32;20439;-66
2023/04/15 07:59:10;;;;;;;;;;;;;;;11.35;100.00;97736.44;4470614;32;19976;-66
2023/04/15 08:01:37;;;;;;;;;;;;;;;11.32;100.00;97743.81;4470579;32;19987;-66
2023/04/15 08:04:05;;;;;;;;;;;;;;;11.64;100.00;97742.06;4470559;32;19984;-66
2023/04/15 08:06:32;;;;;;;;;;;;;;;11.69;100.00;97740.59;4470567;32;19986;-66
2023/04/15 08:09:00;;;;;;;;;;;;;;;11.74;100.00;97747.94;4470624;32;19980;-66
2023/04/15 08:11:28;;;;;;;;;;;;;;;11.75;100.00;97746.97;4470482;32;20361;-66
2023/04/15 08:13:55;;;;;;;;;;;;;;;12.06;100.00;97748.84;4470224;32;20103;-66
2023/04/15 08:16:24;;;;;;;;;;;;;;;12.03;100.00;97746.56;4469289;32;19995;-66
2023/04/15 08:18:54;;;;;;;;;;;;;;;12.45;100.00;97749.78;4470753;32;20157;-66
2023/04/15 08:21:21;;;;;;;;;;;;;;;12.85;100.00;97756.53;4470515;32;19995;-66
2023/04/15 08:23:49;;;;;;;;;;;;;;;12.78;100.00;97758.25;4470406;32;20353;-66
2023/04/15 08:26:17;;;;;;;;;;;;;;;12.85;100.00;97751.28;4470488;32;20075;-67
2023/04/15 08:28:45;;;;;;;;;;;;;;;12.86;100.00;97750.28;4470460;32;19976;-66
2023/04/15 08:31:15;;;;;;;;;;;;;;;12.75;100.00;97755.97;4470391;32;20048;-66
2023/04/15 08:33:43;;;;;;;;;;;;;;;12.89;100.00;97763.06;4470499;32;20055;-66
2023/04/15 08:36:10;;;;;;;;;;;;;;;12.66;100.00;97762.28;4470382;32;20305;-66
2023/04/15 08:38:37;;;;;;;;;;;;;;;12.66;100.00;97764.91;4470275;32;19980;-66
2023/04/15 08:41:11;;;;;;;;;;;;;;;12.76;100.00;97763.69;4470382;32;20405;-66
2023/04/15 08:43:41;;;;;;;;;;;;;;;12.99;100.00;97769.91;4470204;32;19980;-67
2023/04/15 08:46:09;;;;;;;;;;;;;;;12.88;100.00;97768.50;4469153;32;20333;-66
2023/04/15 08:48:36;;;;;;;;;;;;;;;12.99;100.00;97754.97;4468987;32;20089;-66
2023/04/15 08:51:04;;;;;;;;;;;;;;;13.22;100.00;97759.34;4469060;32;20353;-67
2023/04/15 08:53:32;;;;;;;;;;;;;;;13.18;100.00;97761.50;4470091;32;20039;-66
2023/04/15 08:56:00;;;;;;;;;;;;;;;12.57;100.00;97770.19;4470401;32;19988;-67
2023/04/15 08:58:27;;;;;;;;;;;;;;;12.36;100.00;97767.37;4469262;32;20401;-66
2023/04/15 09:00:55;;;;;;;;;;;;;;;12.02;100.00;97765.91;4468976;32;20342;-66
2023/04/15 09:03:23;;;;;;;;;;;;;;;11.99;100.00;97779.38;4468812;32;20062;-66
2023/04/15 09:05:51;;;;;;;;;;;;;;;11.97;100.00;97770.88;4469948;32;19979;-67
2023/04/15 09:08:19;;;;;;;;;;;;;;;12.11;100.00;97771.94;4470086;32;20034;-66
2023/04/15 09:10:47;;;;;;;;;;;;;;;12.43;100.00;97769.16;4470406;32;19988;-66
2023/04/15 09:13:14;;;;;;;;;;;;;;;12.77;100.00;97773.19;4469646;32;20072;-66
2023/04/15 09:15:42;;;;;;;;;;;;;;;13.01;100.00;97768.72;4470128;32;19980;-66
2023/04/15 09:18:13;;;;;;;;;;;;;;;13.32;100.00;97771.25;4469198;32;19991;-66
2023/04/15 09:20:41;;;;;;;;;;;;;;;13.46;100.00;97769.66;4468898;32;20014;-66
2023/04/15 09:23:12;;;;;;;;;;;;;;;13.63;100.00;97772.12;4470227;32;20058;-66
2023/04/15 09:25:43;;;;;;;;;;;;;;;13.75;100.00;97775.13;4470116;32;20322;-66
2023/04/15 09:28:10;;;;;;;;;;;;;;;13.88;100.00;97785.81;4469972;32;20007;-66
2023/04/15 09:30:38;;;;;;;;;;;;;;;13.88;99.73;97785.81;4469906;32;20368;-66
2023/04/15 09:33:09;;;;;;;;;;;;;;;13.80;100.00;97780.66;4469981;32;19979;-66
2023/04/15 09:35:37;;;;;;;;;;;;;;;13.71;100.00;97784.38;4469902;32;19985;-66
2023/04/15 09:38:06;;;;;;;;;;;;;;;13.19;99.51;97786.81;4469910;32;19994;-66
2023/04/15 09:40:36;;;;;;;;;;;;;;;12.94;100.00;97792.28;4470095;32;19999;-66
2023/04/15 09:43:05;;;;;;;;;;;;;;;12.77;100.00;97801.28;4470016;32;19992;-66
2023/04/15 09:45:32;;;;;;;;;;;;;;;12.13;100.00;97802.28;4469931;32;20378;-66
2023/04/15 09:48:20;;;;;;;;;;;;;;;11.96;100.00;97803.34;4469798;32;19964;-66
2023/04/15 09:50:48;;;;;;;;;;;;;;;11.71;100.00;97798.94;4470207;32;20010;-66
2023/04/15 09:53:16;;;;;;;;;;;;;;;11.99;100.00;97803.84;4469663;32;20013;-66
2023/04/15 09:55:48;;;;;;;;;;;;;;;12.19;100.00;97804.22;4470192;32;19976;-66
2023/04/15 09:58:23;;;;;;;;;;;;;;;12.34;100.00;97806.97;4469679;32;20021;-66
2023/04/15 10:00:50;;;;;;;;;;;;;;;12.58;100.00;97803.38;4470050;32;19988;-66
2023/04/15 10:03:19;;;;;;;;;;;;;;;12.53;100.00;97810.12;4469840;32;20051;-66
2023/04/15 10:05:49;;;;;;;;;;;;;;;12.56;100.00;97800.09;4469803;32;19986;-66
2023/04/15 10:08:17;;;;;;;;;;;;;;;12.99;100.00;97799.66;4469817;32;19997;-66
2023/04/15 10:10:46;;;;;;;;;;;;;;;13.30;100.00;97802.16;4470079;32;20000;-66
2023/04/15 10:13:15;;;;;;;;;;;;;;;12.91;100.00;97807.59;4469333;32;20003;-66
2023/04/15 10:15:43;;;;;;;;;;;;;;;12.43;100.00;97800.66;4469923;32;20344;-66
2023/04/15 10:18:11;;;;;;;;;;;;;;;12.32;100.00;97806.28;4469541;32;19984;-66
2023/04/15 10:20:38;;;;;;;;;;;;;;;12.33;100.00;97810.56;4468666;32;20006;-66
2023/04/15 10:23:05;;;;;;;;;;;;;;;12.36;100.00;97819.91;4469849;32;19972;-66
2023/04/15 10:25:37;;;;;;;;;;;;;;;12.51;100.00;97817.38;4468447;32;20090;-67
2023/04/15 10:28:06;;;;;;;;;;;;;;;12.27;100.00;97811.25;4469564;32;19976;-66
2023/04/15 10:30:33;;;;;;;;;;;;;;;12.29;100.00;97813.72;4469297;32;20021;-66
2023/04/15 10:33:01;;;;;;;;;;;;;;;12.43;100.00;97815.63;4468414;32;20031;-66
2023/04/15 10:35:32;;;;;;;;;;;;;;;12.37;100.00;97816.28;4468239;32;19990;-67
2023/04/15 10:38:00;;;;;;;;;;;;;;;12.32;100.00;97808.09;4469574;32;20327;-67
2023/04/15 10:40:31;;;;;;;;;;;;;;;12.11;100.00;97814.75;4469425;32;20010;-66
2023/04/15 10:42:59;;;;;;;;;;;;;;;12.01;100.00;97814.97;4467757;32;19988;-66
2023/04/15 10:45:33;;;;;;;;;;;;;;;11.83;100.00;97815.16;4469318;32;20028;-66
2023/04/15 10:48:02;;;;;;;;;;;;;;;11.69;100.00;97823.75;4469414;32;20059;-66
2023/04/15 10:50:31;;;;;;;;;;;;;;;11.51;100.00;97816.88;4469313;32;19984;-66
2023/04/15 10:52:59;;;;;;;;;;;;;;;11.63;100.00;97819.16;4469095;32;20028;-66
2023/04/15 10:55:29;;;;;;;;;;;;;;;11.96;100.00;97821.72;4467859;32;20021;-66
2023/04/15 10:58:02;;;;;;;;;;;;;;;11.99;100.00;97824.00;4467834;32;19983;-66
2023/04/15 11:00:30;;;;;;;;;;;;;;;12.13;100.00;97825.12;4469266;32;20383;-66
2023/04/15 11:03:05;;;;;;;;;;;;;;;12.25;100.00;97826.38;4469115;32;19994;-67
2023/04/15 11:05:51;;;;;;;;;;;;;;;12.45;100.00;97820.69;4468865;32;20436;-66
2023/04/15 11:08:19;;;;;;;;;;;;;;;12.60;100.00;97827.66;4468865;32;19976;-66
2023/04/15 11:10:46;;;;;;;;;;;;;;;12.70;100.00;97821.34;4469028;32;19980;-66
2023/04/15 11:13:15;;;;;;;;;;;;;;;12.64;100.00;97827.31;4468341;32;20040;-66
2023/04/15 11:15:45;;;;;;;;;;;;;;;12.40;100.00;97826.47;4468753;32;19992;-66
2023/04/15 11:18:17;;;;;;;;;;;;;;;12.40;100.00;97824.66;4468988;32;20361;-66
2023/04/15 11:20:51;;;;;;;;;;;;;;;12.85;100.00;97824.88;4468778;32;19998;-66
2023/04/15 11:23:19;;;;;;;;;;;;;;;12.91;100.00;97829.44;4469174;32;20034;-66
2023/04/15 11:25:47;;;;;;;;;;;;;;;13.04;100.00;97818.31;4468578;32;19965;-66
2023/04/15 11:28:14;;;;;;;;;;;;;;;12.78;100.00;97827.38;4468763;32;19991;-66
2023/04/15 11:30:42;;;;;;;;;;;;;;;12.38;100.00;97829.28;4468443;32;19993;-66
2023/04/15 11:33:11;;;;;;;;;;;;;;;12.16;100.00;97824.78;4468425;32;20247;-67
2023/04/15 11:35:40;;;;;;;;;;;;;;;12.11;100.00;97821.81;4468436;32;20033;-66
2023/04/15 11:38:08;;;;;;;;;;;;;;;11.74;100.00;97824.03;4468475;32;20032;-66
2023/04/15 11:40:37;;;;;;;;;;;;;;;11.54;100.00;97837.53;4469125;32;20003;-66
2023/04/15 11:43:07;;;;;;;;;;;;;;;11.78;100.00;97825.34;4470391;32;20047;-66
2023/04/15 11:45:36;;;;;;;;;;;;;;;12.27;100.00;97828.81;4470760;32;20024;-66
2023/04/15 11:48:06;;;;;;;;;;;;;;;12.59;100.00;97826.00;4470753;32;19989;-66
2023/04/15 11:50:34;;;;;;;;;;;;;;;12.92;100.00;97832.88;4470673;32;20035;-66
2023/04/15 11:53:03;;;;;;;;;;;;;;;12.81;100.00;97825.38;4470798;32;20012;-66
2023/04/15 11:55:45;;;;;;;;;;;;;;;12.67;100.00;97830.44;4470972;32;19976;-66
2023/04/15 11:58:17;;;;;;;;;;;;;;;12.72;100.00;97830.72;4470749;32;20040;-66
2023/04/15 12:00:54;;;;;;;;;;;;;;;12.80;100.00;97827.22;4470528;32;20478;-66
2023/04/15 12:03:23;;;;;;;;;;;;;;;12.67;100.00;97837.47;4470826;32;19988;-66
2023/04/15 12:06:06;;;;;;;;;;;;;;;12.56;100.00;97833.44;4470373;32;20032;-66
2023/04/15 12:08:47;;;;;;;;;;;;;;;12.06;100.00;97835.47;4470845;32;20019;-66
2023/04/15 12:11:14;;;;;;;;;;;;;;;11.83;100.00;97837.97;4470618;32;19992;-66
2023/04/15 12:13:43;;;;;;;;;;;;;;;12.12;100.00;97840.03;4470148;32;20028;-66
2023/04/15 12:16:10;;;;;;;;;;;;;;;12.77;100.00;97843.31;4470494;32;19990;-66
2023/04/15 12:18:37;;;;;;;;;;;;;;;13.14;100.00;97837.31;4470474;32;20393;-66
2023/04/15 12:21:08;;;;;;;;;;;;;;;13.17;100.00;97846.69;4470448;32;20040;-66
2023/04/15 12:23:36;;;;;;;;;;;;;;;13.57;100.00;97844.72;4470466;32;19998;-66
2023/04/15 12:26:04;;;;;;;;;;;;;;;13.83;100.00;97838.19;4470456;32;19972;-66
2023/04/15 12:28:35;;;;;;;;;;;;;;;13.64;100.00;97842.16;4470375;32;19977;-66
2023/04/15 12:31:07;;;;;;;;;;;;;;;13.26;100.00;97842.16;4470428;32;19984;-66
2023/04/15 12:33:35;;;;;;;;;;;;;;;13.26;100.00;97836.87;4470520;32;20059;-66
2023/04/15 12:36:02;;;;;;;;;;;;;;;13.32;100.00;97841.44;4470276;32;19968;-66
2023/04/15 12:38:30;;;;;;;;;;;;;;;13.49;100.00;97840.34;4470452;32;20048;-66
2023/04/15 12:40:58;;;;;;;;;;;;;;;13.14;100.00;97836.47;4470597;32;19976;-66
2023/04/15 12:43:26;;;;;;;;;;;;;;;13.39;100.00;97839.78;4470247;32;19990;-66
2023/04/15 12:45:53;;;;;;;;;;;;;;;13.59;100.00;97847.97;4470205;32;19977;-66
2023/04/15 12:48:20;;;;;;;;;;;;;;;13.53;100.00;97856.56;4470407;32;19976;-66